Station info - map view · info · telemetry · weather · raw · status · beacons · messages · bulletins · browse · moving · my account
Callsign, ship name or locator: Clear       
It is possible to search using wildcards (*?) after a prefix. Example: OH*
APRS station SM7RME-4 - show graphs
Map loading...
Mic-E message: En route
Location: 57°42.14' N 14°59.83' E - locator JO77LQ98PN - show map - static map
2.6 miles North bearing 20° from Eksjö (Eksjoe), Eksjö Kommun, Jönköping, Sweden [?]
11.6 miles East bearing 73° from Nässjö, Nässjö Kommun, Jönköping, Sweden
31.5 miles East bearing 100° from Jönköping, Jönköpings Kommun, Jönköping, Sweden
54.0 miles Southwest bearing 205° from Linköping, Linköpings Kommun, Östergötland, Sweden
Last position: 2021-01-17 13:15:25 EST (9h45m ago)
2021-01-17 19:15:25 CET local time at Eksjö, Sweden [?]
Altitude: 768 ft
Course: 265°
Speed: 10 MPH
Device: Yaesu: FTM-400DR (rig)
Last path: SM7RME-4>UW4R14 via WIDE1-1,WIDE2-1,qAR,SM0RGQ-11 (good)
Positions stored: 1526
Stations near current position of SM7RME-4 - show more
callsign distance last heard - EST      callsign distance last heard - EST
SK7AF3.9 miles 169°2021-01-17 23:01:09 SA7PGB7.4 miles 280°2021-01-17 22:44:56
SM7XFD7.8 miles 235°2021-01-17 22:44:55 SG7BNT-R10.9 miles 112°2021-01-17 22:41:17
SG7BNT10.9 miles 112°2021-01-17 23:01:09 PS-SG7BNT10.9 miles 112°2021-01-17 21:01:37
SG7BNT-DP10.9 miles 112°2021-01-17 23:00:08 SG7RFH11.0 miles 251°2021-01-17 23:01:09
SK7HR11.0 miles 251°2021-01-17 23:01:11 SM7UKH11.1 miles 248°2021-01-17 22:44:56
SM7RZJ12.0 miles 252°2021-01-17 22:50:34 SM7WSE15.0 miles 175°2021-01-17 22:44:57
SM7WSE-N15.0 miles 175°2021-01-01 11:40:34 SG7WSE15.0 miles 175°2021-01-17 22:44:58
SG7WSE-N15.0 miles 175°2021-01-01 01:00:27 SM7NTJ17.3 miles 308°2021-01-17 23:01:12
SM5MJX-917.8 miles 9°2021-01-17 10:58:34
Stations which heard SM7RME-4 directly on radio –
callsign pkts first heard - EST last heard longest (tx => rx) longest at - EST
SM0YOS-8 1 2021-01-06 12:17:08 2021-01-06 12:17:08 JO89XH > JO99AH 0.5 miles 49° 2021-01-06 12:17:08
SK5UM-2 4 2021-01-14 04:55:53 2021-01-14 05:11:45 JO88GR > JO89HB 21.2 miles 12° 2021-01-14 05:11:45
SM5RVH-1 4 2021-01-14 03:24:07 2021-01-14 06:41:49 JO78RJ > JO88LQ 57.4 miles 69° 2021-01-14 06:41:49
SM5RVH-2 37 2021-01-06 10:47:57 2021-01-14 05:17:46 JO88ER > JO88MS 23.3 miles 82° 2021-01-14 05:17:46
SM0XHJ-1 6 2021-01-06 12:25:04 2021-01-14 03:28:06 IO09XI > JO99AK 1252.5 miles 74° 2021-01-14 03:16:07
SK0RYG-1 43 2021-01-06 12:01:23 2021-01-14 03:47:35 JO89TD > JO89XM 27.0 miles 21° 2021-01-14 03:47:35
SM5OEM-3 34 2021-01-06 10:31:53 2021-01-14 05:13:46 JO88DQ > JO89RB 47.1 miles 57° 2021-01-06 10:31:53
SK0SX-2 49 2021-01-06 11:05:57 2021-01-14 04:19:35 IO09XI > JO89XJ 1250.0 miles 74° 2021-01-14 03:16:04
SK0TM-10 7 2021-01-06 12:12:58 2021-01-14 03:20:05 JO89WO > JO99BH 20.5 miles 158° 2021-01-06 12:43:06
SM0RGQ-3 31 2021-01-06 11:39:19 2021-01-14 03:51:35 JO89TC > JO89UI 15.9 miles 11° 2021-01-14 03:51:35
SL5ZYT-3 6 2021-01-06 10:23:50 2021-01-14 06:37:46 JO78SK > JO78VR 21.1 miles 25° 2021-01-14 06:37:46
SK5LF-2 19 2021-01-06 09:21:42 2021-01-14 06:41:47 JO88DQ > JO78TJ 30.8 miles 232° 2021-01-14 05:21:47
SM0RGQ-11 125 2021-01-02 10:36:21 2021-01-17 13:15:25 JO77IP > JO78SN 70.8 miles 24° 2021-01-02 10:46:22
SK0VR-2 14 2021-01-06 12:01:54 2021-01-14 03:47:35 IO09XI > JO99FH 1269.8 miles 74° 2021-01-14 03:16:04
SM0NEK 2 2021-01-06 11:56:23 2021-01-06 12:12:58 JO89WG > JO89XG 3.1 miles 65° 2021-01-06 11:56:23
SM5YLG-3 1 2021-01-14 05:21:46 2021-01-14 05:21:46 JO88DQ > JO88LK 29.4 miles 124° 2021-01-14 05:21:46
SM0ZEY-10 1 2021-01-06 12:35:02 2021-01-06 12:35:02 JO89XM > JO89WM 1.8 miles 293° 2021-01-06 12:35:02
SA5UTR-2 17 2021-01-14 04:45:48 2021-01-14 07:32:38 JO78LA > JO88EQ 69.0 miles 49° 2021-01-14 07:32:38

Only position packets which were originated by the station are shown here. The range statistics show some extra long hops, because some digipeaters do not correctly add themselves to the digipeater path. Please check the raw packets.
About this site
This page shows real-time information collected from the Automatic Position Reporting System Internet network (APRS-IS). APRS is used by amateur (ham) radio operators to transmit real-time position information, weather data, telemetry and messages over the radio. A vehicle equipped with a GPS receiver, a VHF transmitter or HF transceiver and a small computer device called a tracker transmits it's location, speed and course in a small data packet, which is then received by a nearby iGate receiving site which forwards the packet on the Internet. Systems connected to the Internet can send information on the APRS-IS without a radio transmitter, or collect and display information transmitted anywhere in the world.
User guide · FAQ · Blog · Discussion group · Linking to aprs.fi · AIS sites · Service status · Database statistics · Advertising on aprs.fi · Technical details · API · Change log · Planned changes · Credits and thanks · Terms Of Service · iPhone/iPad APRS